sensor_id;sensor_type;location;lat;lon;timestamp;pressure;altitude;pressure_sealevel;temperature;humidity
77299;BME280;66361;52.034;20.656;2022-12-29T00:02:15;99602.63;;;3.84;80.59
77299;BME280;66361;52.034;20.656;2022-12-29T00:05:41;99583.34;;;3.87;79.29
77299;BME280;66361;52.034;20.656;2022-12-29T00:09:05;99585.88;;;3.88;79.85
77299;BME280;66361;52.034;20.656;2022-12-29T00:12:30;99581.50;;;3.89;80.59
77299;BME280;66361;52.034;20.656;2022-12-29T00:16:08;99581.28;;;3.94;79.32
77299;BME280;66361;52.034;20.656;2022-12-29T00:19:34;99583.06;;;3.93;81.27
77299;BME280;66361;52.034;20.656;2022-12-29T00:23:24;99583.06;;;3.93;80.97
77299;BME280;66361;52.034;20.656;2022-12-29T00:27:15;99588.88;;;3.98;80.13
77299;BME280;66361;52.034;20.656;2022-12-29T00:31:00;99585.28;;;4.01;79.58
77299;BME280;66361;52.034;20.656;2022-12-29T00:34:43;99592.19;;;4.02;80.32
77299;BME280;66361;52.034;20.656;2022-12-29T00:38:24;99595.81;;;3.99;80.84
77299;BME280;66361;52.034;20.656;2022-12-29T00:42:08;99596.50;;;4.03;79.13
77299;BME280;66361;52.034;20.656;2022-12-29T00:45:58;99592.88;;;4.05;79.25
77299;BME280;66361;52.034;20.656;2022-12-29T00:49:23;99579.59;;;4.10;77.45
77299;BME280;66361;52.034;20.656;2022-12-29T00:52:58;99580.50;;;4.09;78.63
77299;BME280;66361;52.034;20.656;2022-12-29T00:56:22;99578.91;;;4.06;77.94
77299;BME280;66361;52.034;20.656;2022-12-29T00:59:50;99578.22;;;4.03;79.97
77299;BME280;66361;52.034;20.656;2022-12-29T01:03:14;99564.28;;;4.02;79.68
77299;BME280;66361;52.034;20.656;2022-12-29T01:06:40;99572.75;;;4.07;78.10
77299;BME280;66361;52.034;20.656;2022-12-29T01:10:07;99562.06;;;4.12;76.60
77299;BME280;66361;52.034;20.656;2022-12-29T01:13:35;99572.75;;;4.07;76.44
77299;BME280;66361;52.034;20.656;2022-12-29T01:17:00;99557.81;;;4.09;76.95
77299;BME280;66361;52.034;20.656;2022-12-29T01:20:24;99556.38;;;4.04;77.14
77299;BME280;66361;52.034;20.656;2022-12-29T01:23:49;99541.38;;;4.07;78.15
77299;BME280;66361;52.034;20.656;2022-12-29T01:27:15;99541.22;;;4.10;77.83
77299;BME280;66361;52.034;20.656;2022-12-29T01:30:39;99542.00;;;4.12;76.74
77299;BME280;66361;52.034;20.656;2022-12-29T01:34:04;99541.28;;;4.09;77.72
77299;BME280;66361;52.034;20.656;2022-12-29T01:37:28;99533.19;;;4.13;76.17
77299;BME280;66361;52.034;20.656;2022-12-29T01:40:52;99531.66;;;4.09;77.09
77299;BME280;66361;52.034;20.656;2022-12-29T01:44:52;99531.75;;;4.08;78.53
77299;BME280;66361;52.034;20.656;2022-12-29T01:48:18;99520.66;;;4.03;77.85
77299;BME280;66361;52.034;20.656;2022-12-29T01:51:47;99508.50;;;4.02;78.60
77299;BME280;66361;52.034;20.656;2022-12-29T01:55:13;99509.28;;;4.04;75.88
77299;BME280;66361;52.034;20.656;2022-12-29T01:58:42;99503.28;;;4.02;75.90
77299;BME280;66361;52.034;20.656;2022-12-29T02:02:12;99504.50;;;3.95;78.64
77299;BME280;66361;52.034;20.656;2022-12-29T02:05:40;99514.97;;;3.95;78.86
77299;BME280;66361;52.034;20.656;2022-12-29T02:09:07;99519.66;;;3.88;78.17
77299;BME280;66361;52.034;20.656;2022-12-29T02:12:31;99514.66;;;3.83;78.84
77299;BME280;66361;52.034;20.656;2022-12-29T02:16:04;99516.69;;;3.78;79.42
77299;BME280;66361;52.034;20.656;2022-12-29T02:20:03;99511.34;;;3.80;79.70
77299;BME280;66361;52.034;20.656;2022-12-29T02:23:53;99517.44;;;3.80;79.28
77299;BME280;66361;52.034;20.656;2022-12-29T02:27:48;99509.75;;;3.77;79.11
77299;BME280;66361;52.034;20.656;2022-12-29T02:31:20;99521.22;;;3.75;80.81
77299;BME280;66361;52.034;20.656;2022-12-29T02:34:56;99519.72;;;3.69;80.63
77299;BME280;66361;52.034;20.656;2022-12-29T02:38:33;99528.78;;;3.62;83.09
77299;BME280;66361;52.034;20.656;2022-12-29T02:42:09;99528.38;;;3.53;84.91
77299;BME280;66361;52.034;20.656;2022-12-29T02:45:45;99527.06;;;3.44;87.72
77299;BME280;66361;52.034;20.656;2022-12-29T02:49:15;99510.97;;;3.34;88.27
77299;BME280;66361;52.034;20.656;2022-12-29T02:52:47;99511.44;;;3.25;91.58
77299;BME280;66361;52.034;20.656;2022-12-29T02:56:14;99520.53;;;3.17;92.64
77299;BME280;66361;52.034;20.656;2022-12-29T02:59:40;99507.84;;;3.09;93.40
77299;BME280;66361;52.034;20.656;2022-12-29T03:03:16;99513.25;;;3.05;94.24
77299;BME280;66361;52.034;20.656;2022-12-29T03:06:54;99501.34;;;2.99;95.52
77299;BME280;66361;52.034;20.656;2022-12-29T03:10:29;99502.41;;;2.95;95.30
77299;BME280;66361;52.034;20.656;2022-12-29T03:13:58;99490.31;;;2.92;96.21
77299;BME280;66361;52.034;20.656;2022-12-29T03:17:50;99479.97;;;2.91;96.15
77299;BME280;66361;52.034;20.656;2022-12-29T03:21:20;99462.63;;;2.90;95.70
77299;BME280;66361;52.034;20.656;2022-12-29T03:25:13;99458.31;;;2.89;95.41
77299;BME280;66361;52.034;20.656;2022-12-29T03:28:44;99487.97;;;2.88;96.03
77299;BME280;66361;52.034;20.656;2022-12-29T03:32:11;99483.00;;;2.82;97.08
77299;BME280;66361;52.034;20.656;2022-12-29T03:35:39;99467.56;;;2.77;97.20
77299;BME280;66361;52.034;20.656;2022-12-29T03:39:10;99457.19;;;2.76;95.25
77299;BME280;66361;52.034;20.656;2022-12-29T03:42:38;99452.13;;;2.73;96.38
77299;BME280;66361;52.034;20.656;2022-12-29T03:46:03;99441.03;;;2.68;96.66
77299;BME280;66361;52.034;20.656;2022-12-29T03:49:27;99438.28;;;2.71;94.22
77299;BME280;66361;52.034;20.656;2022-12-29T03:52:51;99425.38;;;2.68;94.76
77299;BME280;66361;52.034;20.656;2022-12-29T03:56:15;99422.63;;;2.71;92.92
77299;BME280;66361;52.034;20.656;2022-12-29T03:59:41;99430.03;;;2.80;91.58
77299;BME280;66361;52.034;20.656;2022-12-29T04:03:05;99444.09;;;2.77;91.81
77299;BME280;66361;52.034;20.656;2022-12-29T04:06:29;99427.59;;;2.77;91.84
77299;BME280;66361;52.034;20.656;2022-12-29T04:09:53;99435.53;;;2.74;91.56
77299;BME280;66361;52.034;20.656;2022-12-29T04:13:17;99437.16;;;2.76;90.36
77299;BME280;66361;52.034;20.656;2022-12-29T04:16:43;99424.97;;;2.77;88.72
77299;BME280;66361;52.034;20.656;2022-12-29T04:20:08;99429.25;;;2.78;86.31
77299;BME280;66361;52.034;20.656;2022-12-29T04:23:50;99426.03;;;2.73;87.67
77299;BME280;66361;52.034;20.656;2022-12-29T04:27:14;99414.66;;;2.74;86.85
77299;BME280;66361;52.034;20.656;2022-12-29T04:30:40;99424.19;;;2.75;85.84
77299;BME280;66361;52.034;20.656;2022-12-29T04:34:05;99404.78;;;2.80;84.54
77299;BME280;66361;52.034;20.656;2022-12-29T04:37:32;99416.09;;;2.81;84.57
77299;BME280;66361;52.034;20.656;2022-12-29T04:40:59;99406.59;;;2.78;84.29
77299;BME280;66361;52.034;20.656;2022-12-29T04:44:23;99409.91;;;2.82;82.49
77299;BME280;66361;52.034;20.656;2022-12-29T04:47:48;99392.34;;;2.85;82.40
77299;BME280;66361;52.034;20.656;2022-12-29T04:51:14;99402.09;;;2.82;83.00
77299;BME280;66361;52.034;20.656;2022-12-29T04:54:39;99380.31;;;2.83;82.11
77299;BME280;66361;52.034;20.656;2022-12-29T04:58:03;99384.66;;;2.82;81.69
77299;BME280;66361;52.034;20.656;2022-12-29T05:01:28;99378.59;;;2.82;81.88
77299;BME280;66361;52.034;20.656;2022-12-29T05:04:53;99393.19;;;2.86;81.19
77299;BME280;66361;52.034;20.656;2022-12-29T05:08:18;99382.00;;;2.84;82.82
77299;BME280;66361;52.034;20.656;2022-12-29T05:11:49;99368.94;;;2.84;81.55
77299;BME280;66361;52.034;20.656;2022-12-29T05:15:13;99369.72;;;2.86;82.74
77299;BME280;66361;52.034;20.656;2022-12-29T05:18:37;99370.34;;;2.91;81.14
77299;BME280;66361;52.034;20.656;2022-12-29T05:22:01;99369.66;;;2.87;81.52
77299;BME280;66361;52.034;20.656;2022-12-29T05:25:26;99352.97;;;2.90;82.03
77299;BME280;66361;52.034;20.656;2022-12-29T05:28:51;99358.50;;;2.84;82.05
77299;BME280;66361;52.034;20.656;2022-12-29T05:32:15;99340.56;;;2.95;79.40
77299;BME280;66361;52.034;20.656;2022-12-29T05:35:39;99328.47;;;2.92;80.42
77299;BME280;66361;52.034;20.656;2022-12-29T05:39:04;99333.06;;;3.06;79.14
77299;BME280;66361;52.034;20.656;2022-12-29T05:42:31;99345.31;;;3.04;79.76
77299;BME280;66361;52.034;20.656;2022-12-29T05:45:55;99345.31;;;3.04;79.42
77299;BME280;66361;52.034;20.656;2022-12-29T05:49:20;99348.78;;;3.05;80.95
77299;BME280;66361;52.034;20.656;2022-12-29T05:52:44;99347.22;;;3.01;82.11
77299;BME280;66361;52.034;20.656;2022-12-29T05:56:08;99339.03;;;3.08;80.24
77299;BME280;66361;52.034;20.656;2022-12-29T05:59:34;99340.34;;;3.17;79.74
77299;BME280;66361;52.034;20.656;2022-12-29T06:02:58;99348.72;;;3.23;79.56
77299;BME280;66361;52.034;20.656;2022-12-29T06:06:22;99342.50;;;3.26;77.47
77299;BME280;66361;52.034;20.656;2022-12-29T06:09:46;99344.03;;;3.30;78.95
77299;BME280;66361;52.034;20.656;2022-12-29T06:13:11;99344.81;;;3.32;80.29
77299;BME280;66361;52.034;20.656;2022-12-29T06:16:36;99327.66;;;3.26;79.99
77299;BME280;66361;52.034;20.656;2022-12-29T06:20:03;99356.53;;;3.23;81.74
77299;BME280;66361;52.034;20.656;2022-12-29T06:23:27;99350.34;;;3.26;79.78
77299;BME280;66361;52.034;20.656;2022-12-29T06:26:51;99356.00;;;3.34;79.47
77299;BME280;66361;52.034;20.656;2022-12-29T06:30:15;99353.84;;;3.42;80.39
77299;BME280;66361;52.034;20.656;2022-12-29T06:33:41;99360.56;;;3.48;81.11
77299;BME280;66361;52.034;20.656;2022-12-29T06:37:10;99352.72;;;3.48;79.83
77299;BME280;66361;52.034;20.656;2022-12-29T06:40:35;99365.00;;;3.46;79.33
77299;BME280;66361;52.034;20.656;2022-12-29T06:43:59;99368.47;;;3.46;78.96
77299;BME280;66361;52.034;20.656;2022-12-29T06:47:23;99344.88;;;3.48;79.96
77299;BME280;66361;52.034;20.656;2022-12-29T06:50:48;99361.41;;;3.48;79.19
77299;BME280;66361;52.034;20.656;2022-12-29T06:54:13;99348.34;;;3.48;79.86
77299;BME280;66361;52.034;20.656;2022-12-29T06:57:36;99342.44;;;3.45;79.92
77299;BME280;66361;52.034;20.656;2022-12-29T07:01:00;99339.44;;;3.52;77.84
77299;BME280;66361;52.034;20.656;2022-12-29T07:04:24;99349.09;;;3.50;78.12
77299;BME280;66361;52.034;20.656;2022-12-29T07:07:50;99345.63;;;3.50;79.14
77299;BME280;66361;52.034;20.656;2022-12-29T07:11:14;99341.88;;;3.55;77.69
77299;BME280;66361;52.034;20.656;2022-12-29T07:14:38;99351.16;;;3.61;77.74
77299;BME280;66361;52.034;20.656;2022-12-29T07:18:04;99350.06;;;3.65;76.86
77299;BME280;66361;52.034;20.656;2022-12-29T07:21:29;99345.47;;;3.70;77.95
77299;BME280;66361;52.034;20.656;2022-12-29T07:24:53;99342.63;;;3.74;77.98
77299;BME280;66361;52.034;20.656;2022-12-29T07:28:18;99339.59;;;3.82;77.19
77299;BME280;66361;52.034;20.656;2022-12-29T07:31:41;99339.78;;;3.95;78.65
77299;BME280;66361;52.034;20.656;2022-12-29T07:35:07;99345.81;;;3.97;77.84
77299;BME280;66361;52.034;20.656;2022-12-29T07:38:34;99350.06;;;3.98;77.11
77299;BME280;66361;52.034;20.656;2022-12-29T07:42:00;99356.00;;;4.01;78.56
77299;BME280;66361;52.034;20.656;2022-12-29T07:45:26;99346.16;;;4.06;75.01
77299;BME280;66361;52.034;20.656;2022-12-29T07:48:50;99346.81;;;4.10;72.86
77299;BME280;66361;52.034;20.656;2022-12-29T07:52:14;99347.34;;;4.16;75.49
77299;BME280;66361;52.034;20.656;2022-12-29T07:55:39;99339.00;;;4.25;73.94
77299;BME280;66361;52.034;20.656;2022-12-29T07:59:04;99341.03;;;4.36;74.46
77299;BME280;66361;52.034;20.656;2022-12-29T08:02:28;99329.91;;;4.48;73.49
77299;BME280;66361;52.034;20.656;2022-12-29T08:05:52;99324.31;;;4.70;70.71
77299;BME280;66361;52.034;20.656;2022-12-29T08:09:16;99337.69;;;4.95;73.95
77299;BME280;66361;52.034;20.656;2022-12-29T08:12:45;99320.94;;;5.13;71.79
77299;BME280;66361;52.034;20.656;2022-12-29T08:16:10;99324.72;;;5.23;71.80
77299;BME280;66361;52.034;20.656;2022-12-29T08:19:34;99327.16;;;5.26;70.52
77299;BME280;66361;52.034;20.656;2022-12-29T08:22:58;99335.84;;;5.27;72.24
77299;BME280;66361;52.034;20.656;2022-12-29T08:29:49;99347.25;;;5.26;70.00
77299;BME280;66361;52.034;20.656;2022-12-29T08:33:13;99342.69;;;5.29;72.23
77299;BME280;66361;52.034;20.656;2022-12-29T08:36:37;99346.06;;;5.31;69.56
77299;BME280;66361;52.034;20.656;2022-12-29T08:40:01;99339.22;;;5.29;68.32
77299;BME280;66361;52.034;20.656;2022-12-29T08:43:27;99341.50;;;5.35;68.68
77299;BME280;66361;52.034;20.656;2022-12-29T08:46:53;99347.59;;;5.35;71.46
77299;BME280;66361;52.034;20.656;2022-12-29T08:50:16;99341.41;;;5.36;69.73
77299;BME280;66361;52.034;20.656;2022-12-29T08:53:44;99331.28;;;5.30;69.81
77299;BME280;66361;52.034;20.656;2022-12-29T08:57:08;99338.97;;;5.33;69.39
77299;BME280;66361;52.034;20.656;2022-12-29T09:00:32;99356.97;;;5.40;69.27
77299;BME280;66361;52.034;20.656;2022-12-29T09:03:59;99340.78;;;5.47;68.72
77299;BME280;66361;52.034;20.656;2022-12-29T09:07:40;99337.16;;;5.64;72.60
77299;BME280;66361;52.034;20.656;2022-12-29T09:11:08;99328.38;;;5.79;69.35
77299;BME280;66361;52.034;20.656;2022-12-29T09:14:32;99335.72;;;5.88;70.16
77299;BME280;66361;52.034;20.656;2022-12-29T09:17:56;99333.91;;;5.89;68.23
77299;BME280;66361;52.034;20.656;2022-12-29T09:21:24;99320.91;;;5.87;67.81
77299;BME280;66361;52.034;20.656;2022-12-29T09:24:48;99340.59;;;5.94;68.67
77299;BME280;66361;52.034;20.656;2022-12-29T09:28:13;99327.09;;;5.86;68.59
77299;BME280;66361;52.034;20.656;2022-12-29T09:31:37;99319.00;;;5.75;68.36
77299;BME280;66361;52.034;20.656;2022-12-29T09:35:01;99332.22;;;5.73;70.93
77299;BME280;66361;52.034;20.656;2022-12-29T09:38:27;99327.63;;;5.77;69.48
77299;BME280;66361;52.034;20.656;2022-12-29T09:41:52;99331.91;;;5.78;72.61
77299;BME280;66361;52.034;20.656;2022-12-29T09:45:27;99330.56;;;5.87;70.79
77299;BME280;66361;52.034;20.656;2022-12-29T09:49:03;99315.78;;;6.00;68.75
77299;BME280;66361;52.034;20.656;2022-12-29T09:52:32;99308.09;;;6.11;68.21
77299;BME280;66361;52.034;20.656;2022-12-29T09:56:01;99306.09;;;6.14;67.02
77299;BME280;66361;52.034;20.656;2022-12-29T09:59:35;99302.16;;;6.21;67.71
77299;BME280;66361;52.034;20.656;2022-12-29T10:03:05;99298.28;;;6.27;67.90
77299;BME280;66361;52.034;20.656;2022-12-29T10:06:39;99304.72;;;6.50;68.35
77299;BME280;66361;52.034;20.656;2022-12-29T10:10:35;99301.31;;;6.89;66.32
77299;BME280;66361;52.034;20.656;2022-12-29T10:14:17;99294.13;;;7.05;66.64
77299;BME280;66361;52.034;20.656;2022-12-29T10:17:51;99296.63;;;7.06;64.46
77299;BME280;66361;52.034;20.656;2022-12-29T10:21:18;99296.97;;;7.14;66.53
77299;BME280;66361;52.034;20.656;2022-12-29T10:24:45;99283.53;;;7.19;63.75
77299;BME280;66361;52.034;20.656;2022-12-29T10:28:17;99278.47;;;7.16;65.47
77299;BME280;66361;52.034;20.656;2022-12-29T10:31:46;99280.78;;;7.20;64.15
77299;BME280;66361;52.034;20.656;2022-12-29T10:35:14;99277.28;;;7.07;66.19
77299;BME280;66361;52.034;20.656;2022-12-29T10:38:42;99264.97;;;6.95;66.63
77299;BME280;66361;52.034;20.656;2022-12-29T10:42:13;99268.72;;;6.91;65.98
77299;BME280;66361;52.034;20.656;2022-12-29T10:45:39;99273.59;;;6.97;65.68
77299;BME280;66361;52.034;20.656;2022-12-29T10:49:05;99265.31;;;7.03;66.14
77299;BME280;66361;52.034;20.656;2022-12-29T10:52:31;99276.88;;;7.13;65.71
77299;BME280;66361;52.034;20.656;2022-12-29T10:55:57;99276.28;;;7.22;64.34
77299;BME280;66361;52.034;20.656;2022-12-29T10:59:26;99264.63;;;7.26;67.54
77299;BME280;66361;52.034;20.656;2022-12-29T11:03:06;99268.69;;;7.18;63.88
77299;BME280;66361;52.034;20.656;2022-12-29T11:06:37;99255.47;;;7.19;64.66
77299;BME280;66361;52.034;20.656;2022-12-29T11:10:19;99262.06;;;7.25;63.47
77299;BME280;66361;52.034;20.656;2022-12-29T11:13:47;99257.44;;;7.28;64.55
77299;BME280;66361;52.034;20.656;2022-12-29T11:17:15;99248.84;;;7.26;64.24
77299;BME280;66361;52.034;20.656;2022-12-29T11:20:41;99259.69;;;7.35;65.30
77299;BME280;66361;52.034;20.656;2022-12-29T11:24:20;99259.22;;;7.28;64.53
77299;BME280;66361;52.034;20.656;2022-12-29T11:27:59;99262.72;;;7.28;64.77
77299;BME280;66361;52.034;20.656;2022-12-29T11:31:23;99264.63;;;7.26;63.21
77299;BME280;66361;52.034;20.656;2022-12-29T11:34:50;99263.00;;;7.24;64.53
77299;BME280;66361;52.034;20.656;2022-12-29T11:38:19;99262.38;;;7.20;66.31
77299;BME280;66361;52.034;20.656;2022-12-29T11:41:51;99267.13;;;7.15;66.48
77299;BME280;66361;52.034;20.656;2022-12-29T11:45:17;99265.63;;;7.11;66.25
77299;BME280;66361;52.034;20.656;2022-12-29T11:48:42;99273.31;;;7.14;65.38
77299;BME280;66361;52.034;20.656;2022-12-29T11:52:07;99263.22;;;7.21;63.69
77299;BME280;66361;52.034;20.656;2022-12-29T11:55:32;99265.13;;;7.19;65.52
77299;BME280;66361;52.034;20.656;2022-12-29T11:58:57;99248.72;;;7.15;65.96
77299;BME280;66361;52.034;20.656;2022-12-29T12:02:41;99247.13;;;7.13;67.74
77299;BME280;66361;52.034;20.656;2022-12-29T12:06:13;99253.97;;;7.15;65.20
77299;BME280;66361;52.034;20.656;2022-12-29T12:09:43;99243.34;;;7.17;65.52
77299;BME280;66361;52.034;20.656;2022-12-29T12:13:17;99250.94;;;7.21;66.43
77299;BME280;66361;52.034;20.656;2022-12-29T12:16:48;99236.31;;;7.30;65.46
77299;BME280;66361;52.034;20.656;2022-12-29T12:20:17;99257.56;;;7.27;65.15
77299;BME280;66361;52.034;20.656;2022-12-29T12:24:05;99252.31;;;7.27;65.54
77299;BME280;66361;52.034;20.656;2022-12-29T12:27:39;99240.75;;;7.29;66.78
77299;BME280;66361;52.034;20.656;2022-12-29T12:31:17;99242.09;;;7.35;65.85
77299;BME280;66361;52.034;20.656;2022-12-29T12:34:45;99235.50;;;7.42;66.96
77299;BME280;66361;52.034;20.656;2022-12-29T12:38:21;99231.59;;;7.48;65.71
77299;BME280;66361;52.034;20.656;2022-12-29T12:41:56;99227.38;;;7.58;63.29
77299;BME280;66361;52.034;20.656;2022-12-29T12:45:34;99217.38;;;7.63;65.24
77299;BME280;66361;52.034;20.656;2022-12-29T12:53:22;99210.03;;;7.55;65.65
77299;BME280;66361;52.034;20.656;2022-12-29T12:56:56;99223.81;;;7.59;63.84
77299;BME280;66361;52.034;20.656;2022-12-29T13:00:24;99220.63;;;7.54;65.94
77299;BME280;66361;52.034;20.656;2022-12-29T13:04:00;99223.78;;;7.46;65.44
77299;BME280;66361;52.034;20.656;2022-12-29T13:07:36;99239.06;;;7.41;66.86
77299;BME280;66361;52.034;20.656;2022-12-29T13:11:13;99233.19;;;7.38;66.42
77299;BME280;66361;52.034;20.656;2022-12-29T13:14:47;99234.97;;;7.37;66.13
77299;BME280;66361;52.034;20.656;2022-12-29T13:18:21;99246.97;;;7.41;65.47
77299;BME280;66361;52.034;20.656;2022-12-29T13:21:56;99246.00;;;7.42;65.94
77299;BME280;66361;52.034;20.656;2022-12-29T13:25:35;99233.28;;;7.36;65.94
77299;BME280;66361;52.034;20.656;2022-12-29T13:29:06;99236.22;;;7.32;68.36
77299;BME280;66361;52.034;20.656;2022-12-29T13:32:47;99251.97;;;7.32;66.92
77299;BME280;66361;52.034;20.656;2022-12-29T13:36:24;99232.03;;;7.42;66.81
77299;BME280;66361;52.034;20.656;2022-12-29T13:39:51;99238.97;;;7.30;67.84
77299;BME280;66361;52.034;20.656;2022-12-29T13:43:18;99244.53;;;7.25;66.91
77299;BME280;66361;52.034;20.656;2022-12-29T13:46:53;99242.81;;;7.24;67.85
77299;BME280;66361;52.034;20.656;2022-12-29T13:50:21;99241.34;;;7.20;69.00
77299;BME280;66361;52.034;20.656;2022-12-29T13:54:01;99243.34;;;7.17;68.44
77299;BME280;66361;52.034;20.656;2022-12-29T13:57:35;99243.25;;;7.18;66.50
77299;BME280;66361;52.034;20.656;2022-12-29T14:01:08;99255.34;;;7.21;66.70
77299;BME280;66361;52.034;20.656;2022-12-29T14:04:55;99263.97;;;7.23;67.09
77299;BME280;66361;52.034;20.656;2022-12-29T14:08:18;99248.09;;;7.24;67.79
77299;BME280;66361;52.034;20.656;2022-12-29T14:11:43;99247.69;;;7.31;66.90
77299;BME280;66361;52.034;20.656;2022-12-29T14:15:22;99248.41;;;7.33;68.21
77299;BME280;66361;52.034;20.656;2022-12-29T14:18:47;99247.78;;;7.29;67.22
77299;BME280;66361;52.034;20.656;2022-12-29T14:22:12;99248.41;;;7.33;67.00
77299;BME280;66361;52.034;20.656;2022-12-29T14:25:58;99242.44;;;7.31;68.13
77299;BME280;66361;52.034;20.656;2022-12-29T14:29:43;99246.09;;;7.28;68.53
77299;BME280;66361;52.034;20.656;2022-12-29T14:33:13;99236.63;;;7.25;67.67
77299;BME280;66361;52.034;20.656;2022-12-29T14:36:39;99243.25;;;7.18;70.97
77299;BME280;66361;52.034;20.656;2022-12-29T14:40:14;99244.63;;;7.11;70.96
77299;BME280;66361;52.034;20.656;2022-12-29T14:43:54;99243.22;;;7.06;70.61
77299;BME280;66361;52.034;20.656;2022-12-29T14:47:22;99251.94;;;7.06;68.83
77299;BME280;66361;52.034;20.656;2022-12-29T14:50:48;99242.06;;;7.10;68.04
77299;BME280;66361;52.034;20.656;2022-12-29T14:54:44;99255.94;;;6.99;71.81
77299;BME280;66361;52.034;20.656;2022-12-29T14:58:16;99253.59;;;6.95;71.04
77299;BME280;66361;52.034;20.656;2022-12-29T15:01:45;99261.41;;;6.96;70.82
77299;BME280;66361;52.034;20.656;2022-12-29T15:05:26;99251.91;;;6.94;71.98
77299;BME280;66361;52.034;20.656;2022-12-29T15:08:54;99253.91;;;6.90;71.74
77299;BME280;66361;52.034;20.656;2022-12-29T15:12:26;99251.28;;;6.90;69.94
77299;BME280;66361;52.034;20.656;2022-12-29T15:15:55;99250.91;;;6.96;70.13
77299;BME280;66361;52.034;20.656;2022-12-29T15:19:23;99243.66;;;7.00;70.48
77299;BME280;66361;52.034;20.656;2022-12-29T15:22:50;99252.59;;;6.97;69.83
77299;BME280;66361;52.034;20.656;2022-12-29T15:26:16;99245.38;;;6.87;72.09
77299;BME280;66361;52.034;20.656;2022-12-29T15:29:46;99250.00;;;6.70;71.50
77299;BME280;66361;52.034;20.656;2022-12-29T15:33:19;99235.97;;;6.57;71.57
77299;BME280;66361;52.034;20.656;2022-12-29T15:36:44;99248.28;;;6.43;72.58
77299;BME280;66361;52.034;20.656;2022-12-29T15:40:22;99240.84;;;6.22;73.14
77299;BME280;66361;52.034;20.656;2022-12-29T15:43:55;99235.38;;;5.99;73.79
77299;BME280;66361;52.034;20.656;2022-12-29T15:47:23;99250.09;;;5.87;74.50
77299;BME280;66361;52.034;20.656;2022-12-29T15:50:50;99241.38;;;5.87;75.29
77299;BME280;66361;52.034;20.656;2022-12-29T15:54:16;99250.16;;;5.71;75.48
77299;BME280;66361;52.034;20.656;2022-12-29T15:57:44;99248.00;;;5.64;76.32
77299;BME280;66361;52.034;20.656;2022-12-29T16:01:17;99245.66;;;5.59;76.99
77299;BME280;66361;52.034;20.656;2022-12-29T16:04:43;99253.06;;;5.67;75.69
77299;BME280;66361;52.034;20.656;2022-12-29T16:08:35;99243.16;;;5.58;75.98
77299;BME280;66361;52.034;20.656;2022-12-29T16:12:03;99250.63;;;5.35;77.09
77299;BME280;66361;52.034;20.656;2022-12-29T16:15:30;99248.91;;;5.20;78.97
77299;BME280;66361;52.034;20.656;2022-12-29T16:18:55;99250.91;;;5.31;77.49
77299;BME280;66361;52.034;20.656;2022-12-29T16:22:26;99251.94;;;5.28;77.63
77299;BME280;66361;52.034;20.656;2022-12-29T16:25:53;99253.59;;;5.29;78.28
77299;BME280;66361;52.034;20.656;2022-12-29T16:29:20;99260.59;;;5.29;79.01
77299;BME280;66361;52.034;20.656;2022-12-29T16:32:46;99258.69;;;5.47;77.96
77299;BME280;66361;52.034;20.656;2022-12-29T16:36:30;99265.31;;;5.52;78.70
77299;BME280;66361;52.034;20.656;2022-12-29T16:39:54;99275.25;;;5.61;76.65
77299;BME280;66361;52.034;20.656;2022-12-29T16:43:23;99262.59;;;5.82;76.53
77299;BME280;66361;52.034;20.656;2022-12-29T16:47:01;99268.91;;;5.94;76.06
77299;BME280;66361;52.034;20.656;2022-12-29T16:50:31;99260.47;;;6.03;76.16
77299;BME280;66361;52.034;20.656;2022-12-29T16:53:58;99273.31;;;6.07;76.35
77299;BME280;66361;52.034;20.656;2022-12-29T16:57:28;99278.06;;;6.15;75.25
77299;BME280;66361;52.034;20.656;2022-12-29T17:00:55;99271.97;;;6.28;75.22
77299;BME280;66361;52.034;20.656;2022-12-29T17:04:19;99267.44;;;6.30;74.40
77299;BME280;66361;52.034;20.656;2022-12-29T17:07:43;99285.81;;;6.30;74.46
77299;BME280;66361;52.034;20.656;2022-12-29T17:11:18;99264.81;;;6.30;75.00
77299;BME280;66361;52.034;20.656;2022-12-29T17:15:03;99276.06;;;6.32;74.67
77299;BME280;66361;52.034;20.656;2022-12-29T17:18:31;99273.97;;;6.38;74.36
77299;BME280;66361;52.034;20.656;2022-12-29T17:21:56;99278.31;;;6.39;73.59
77299;BME280;66361;52.034;20.656;2022-12-29T17:25:21;99270.63;;;6.36;75.50
77299;BME280;66361;52.034;20.656;2022-12-29T17:28:47;99269.38;;;6.41;73.82
77299;BME280;66361;52.034;20.656;2022-12-29T17:32:12;99272.97;;;6.40;73.86
77299;BME280;66361;52.034;20.656;2022-12-29T17:35:38;99272.56;;;6.46;74.66
77299;BME280;66361;52.034;20.656;2022-12-29T17:39:02;99268.81;;;6.50;74.33
77299;BME280;66361;52.034;20.656;2022-12-29T17:42:28;99270.59;;;6.50;75.00
77299;BME280;66361;52.034;20.656;2022-12-29T17:45:55;99274.53;;;6.43;75.52
77299;BME280;66361;52.034;20.656;2022-12-29T17:49:20;99263.41;;;6.39;74.42
77299;BME280;66361;52.034;20.656;2022-12-29T17:52:50;99269.13;;;6.31;74.97
77299;BME280;66361;52.034;20.656;2022-12-29T17:56:14;99263.69;;;6.35;72.66
77299;BME280;66361;52.034;20.656;2022-12-29T17:59:41;99272.00;;;6.41;72.60
77299;BME280;66361;52.034;20.656;2022-12-29T18:03:07;99271.69;;;6.19;73.55
77299;BME280;66361;52.034;20.656;2022-12-29T18:06:32;99286.81;;;5.87;75.14
77299;BME280;66361;52.034;20.656;2022-12-29T18:09:58;99294.47;;;5.62;76.99
77299;BME280;66361;52.034;20.656;2022-12-29T18:13:23;99291.34;;;5.55;76.58
77299;BME280;66361;52.034;20.656;2022-12-29T18:16:57;99290.31;;;5.44;78.18
77299;BME280;66361;52.034;20.656;2022-12-29T18:20:23;99283.66;;;5.38;77.90
77299;BME280;66361;52.034;20.656;2022-12-29T18:23:48;99289.38;;;5.45;77.70
77299;BME280;66361;52.034;20.656;2022-12-29T18:27:14;99280.97;;;5.40;77.98
77299;BME280;66361;52.034;20.656;2022-12-29T18:30:39;99280.50;;;5.61;77.13
77299;BME280;66361;52.034;20.656;2022-12-29T18:34:12;99283.97;;;5.62;77.42
77299;BME280;66361;52.034;20.656;2022-12-29T18:37:37;99292.19;;;5.70;76.82